sensor_id;sensor_type;location;lat;lon;timestamp;temperature;humidity
6486;DHT22;3276;48.490;9.222;2024-01-27T00:00:08;2.60;30.20
6486;DHT22;3276;48.490;9.222;2024-01-27T00:02:35;2.50;30.90
6486;DHT22;3276;48.490;9.222;2024-01-27T00:05:01;2.50;32.50
6486;DHT22;3276;48.490;9.222;2024-01-27T00:07:27;2.40;32.20
6486;DHT22;3276;48.490;9.222;2024-01-27T00:09:54;2.40;32.00
6486;DHT22;3276;48.490;9.222;2024-01-27T00:12:19;2.40;30.80
6486;DHT22;3276;48.490;9.222;2024-01-27T00:14:45;2.30;31.40
6486;DHT22;3276;48.490;9.222;2024-01-27T00:17:11;2.30;32.10
6486;DHT22;3276;48.490;9.222;2024-01-27T00:19:36;2.20;31.20
6486;DHT22;3276;48.490;9.222;2024-01-27T00:22:06;2.10;32.50
6486;DHT22;3276;48.490;9.222;2024-01-27T00:24:31;2.00;30.90
6486;DHT22;3276;48.490;9.222;2024-01-27T00:26:57;2.00;32.70
6486;DHT22;3276;48.490;9.222;2024-01-27T00:29:23;1.90;32.70
6486;DHT22;3276;48.490;9.222;2024-01-27T00:31:48;1.90;33.40
6486;DHT22;3276;48.490;9.222;2024-01-27T00:34:16;1.80;31.90
6486;DHT22;3276;48.490;9.222;2024-01-27T00:36:42;1.80;33.70
6486;DHT22;3276;48.490;9.222;2024-01-27T00:39:17;1.80;32.90
6486;DHT22;3276;48.490;9.222;2024-01-27T00:41:43;1.70;33.50
6486;DHT22;3276;48.490;9.222;2024-01-27T00:44:09;1.70;33.70
6486;DHT22;3276;48.490;9.222;2024-01-27T00:46:36;1.60;34.00
6486;DHT22;3276;48.490;9.222;2024-01-27T00:49:04;1.50;34.90
6486;DHT22;3276;48.490;9.222;2024-01-27T00:51:30;1.40;35.10
6486;DHT22;3276;48.490;9.222;2024-01-27T00:53:56;1.40;35.20
6486;DHT22;3276;48.490;9.222;2024-01-27T00:56:21;1.50;35.80
6486;DHT22;3276;48.490;9.222;2024-01-27T00:58:47;1.40;36.80
6486;DHT22;3276;48.490;9.222;2024-01-27T01:01:12;1.40;35.50
6486;DHT22;3276;48.490;9.222;2024-01-27T01:03:38;1.30;35.00
6486;DHT22;3276;48.490;9.222;2024-01-27T01:06:04;1.30;35.00
6486;DHT22;3276;48.490;9.222;2024-01-27T01:08:29;1.30;36.10
6486;DHT22;3276;48.490;9.222;2024-01-27T01:10:55;1.20;35.90
6486;DHT22;3276;48.490;9.222;2024-01-27T01:13:20;1.20;37.20
6486;DHT22;3276;48.490;9.222;2024-01-27T01:15:46;1.20;37.00
6486;DHT22;3276;48.490;9.222;2024-01-27T01:18:12;1.10;37.60
6486;DHT22;3276;48.490;9.222;2024-01-27T01:20:37;1.10;37.40
6486;DHT22;3276;48.490;9.222;2024-01-27T01:23:03;1.10;37.80
6486;DHT22;3276;48.490;9.222;2024-01-27T01:25:28;1.10;38.00
6486;DHT22;3276;48.490;9.222;2024-01-27T01:27:54;1.00;37.30
6486;DHT22;3276;48.490;9.222;2024-01-27T01:30:20;1.00;37.40
6486;DHT22;3276;48.490;9.222;2024-01-27T01:32:45;0.90;38.10
6486;DHT22;3276;48.490;9.222;2024-01-27T01:35:11;0.90;37.80
6486;DHT22;3276;48.490;9.222;2024-01-27T01:37:36;0.90;37.70
6486;DHT22;3276;48.490;9.222;2024-01-27T01:40:02;0.80;37.50
6486;DHT22;3276;48.490;9.222;2024-01-27T01:42:28;0.80;38.00
6486;DHT22;3276;48.490;9.222;2024-01-27T01:44:55;0.80;39.10
6486;DHT22;3276;48.490;9.222;2024-01-27T01:47:20;0.80;38.80
6486;DHT22;3276;48.490;9.222;2024-01-27T01:49:48;0.80;38.50
6486;DHT22;3276;48.490;9.222;2024-01-27T01:52:14;0.70;39.20
6486;DHT22;3276;48.490;9.222;2024-01-27T01:54:48;0.70;38.90
6486;DHT22;3276;48.490;9.222;2024-01-27T01:57:14;0.70;38.90
6486;DHT22;3276;48.490;9.222;2024-01-27T01:59:40;0.70;38.90
6486;DHT22;3276;48.490;9.222;2024-01-27T02:02:07;0.60;38.90
6486;DHT22;3276;48.490;9.222;2024-01-27T02:04:42;0.60;39.00
6486;DHT22;3276;48.490;9.222;2024-01-27T02:07:08;0.60;38.30
6486;DHT22;3276;48.490;9.222;2024-01-27T02:09:34;0.60;38.80
6486;DHT22;3276;48.490;9.222;2024-01-27T02:12:00;0.50;38.80
6486;DHT22;3276;48.490;9.222;2024-01-27T02:14:26;0.50;39.60
6486;DHT22;3276;48.490;9.222;2024-01-27T02:16:53;0.50;40.10
6486;DHT22;3276;48.490;9.222;2024-01-27T02:19:18;0.60;40.00
6486;DHT22;3276;48.490;9.222;2024-01-27T02:21:44;0.60;39.50
6486;DHT22;3276;48.490;9.222;2024-01-27T02:24:09;0.60;39.80
6486;DHT22;3276;48.490;9.222;2024-01-27T02:26:36;0.60;39.60
6486;DHT22;3276;48.490;9.222;2024-01-27T02:29:01;0.60;39.90
6486;DHT22;3276;48.490;9.222;2024-01-27T02:31:27;0.50;39.40
6486;DHT22;3276;48.490;9.222;2024-01-27T02:33:52;0.40;38.90
6486;DHT22;3276;48.490;9.222;2024-01-27T02:36:18;0.40;39.20
6486;DHT22;3276;48.490;9.222;2024-01-27T02:38:43;0.30;38.30
6486;DHT22;3276;48.490;9.222;2024-01-27T02:41:12;0.30;39.20
6486;DHT22;3276;48.490;9.222;2024-01-27T02:43:37;0.30;39.00
6486;DHT22;3276;48.490;9.222;2024-01-27T02:46:12;0.20;38.80
6486;DHT22;3276;48.490;9.222;2024-01-27T02:48:41;0.20;39.20
6486;DHT22;3276;48.490;9.222;2024-01-27T02:51:08;0.20;39.20
6486;DHT22;3276;48.490;9.222;2024-01-27T02:53:33;0.20;39.90
6486;DHT22;3276;48.490;9.222;2024-01-27T02:55:59;0.10;38.80
6486;DHT22;3276;48.490;9.222;2024-01-27T02:58:24;0.10;39.50
6486;DHT22;3276;48.490;9.222;2024-01-27T03:00:50;0.10;39.50
6486;DHT22;3276;48.490;9.222;2024-01-27T03:03:16;0.10;39.50
6486;DHT22;3276;48.490;9.222;2024-01-27T03:05:41;0.10;39.10
6486;DHT22;3276;48.490;9.222;2024-01-27T03:08:07;0.00;39.70
6486;DHT22;3276;48.490;9.222;2024-01-27T03:10:32;0.00;39.70
6486;DHT22;3276;48.490;9.222;2024-01-27T03:12:58;0.00;40.80
6486;DHT22;3276;48.490;9.222;2024-01-27T03:15:23;0.00;41.80
6486;DHT22;3276;48.490;9.222;2024-01-27T03:17:49;0.00;41.40
6486;DHT22;3276;48.490;9.222;2024-01-27T03:20:14;0.00;41.10
6486;DHT22;3276;48.490;9.222;2024-01-27T03:22:40;0.00;41.00
6486;DHT22;3276;48.490;9.222;2024-01-27T03:25:07;-0.10;40.50
6486;DHT22;3276;48.490;9.222;2024-01-27T03:27:34;-0.10;40.70
6486;DHT22;3276;48.490;9.222;2024-01-27T03:30:00;-0.10;40.50
6486;DHT22;3276;48.490;9.222;2024-01-27T03:32:29;-0.10;40.80
6486;DHT22;3276;48.490;9.222;2024-01-27T03:34:58;-0.10;41.10
6486;DHT22;3276;48.490;9.222;2024-01-27T03:37:24;-0.10;41.10
6486;DHT22;3276;48.490;9.222;2024-01-27T03:39:49;-0.10;41.50
6486;DHT22;3276;48.490;9.222;2024-01-27T03:42:15;-0.10;41.80
6486;DHT22;3276;48.490;9.222;2024-01-27T03:44:40;-0.10;41.90
6486;DHT22;3276;48.490;9.222;2024-01-27T03:47:06;0.00;42.30
6486;DHT22;3276;48.490;9.222;2024-01-27T03:49:31;-0.10;42.30
6486;DHT22;3276;48.490;9.222;2024-01-27T03:51:57;-0.10;41.60
6486;DHT22;3276;48.490;9.222;2024-01-27T03:54:22;-0.10;42.30
6486;DHT22;3276;48.490;9.222;2024-01-27T03:56:48;-0.10;42.50
6486;DHT22;3276;48.490;9.222;2024-01-27T03:59:13;0.00;43.90
6486;DHT22;3276;48.490;9.222;2024-01-27T04:01:39;0.10;44.10
6486;DHT22;3276;48.490;9.222;2024-01-27T04:04:04;0.20;44.20
6486;DHT22;3276;48.490;9.222;2024-01-27T04:06:36;0.30;44.20
6486;DHT22;3276;48.490;9.222;2024-01-27T04:09:02;0.40;44.40
6486;DHT22;3276;48.490;9.222;2024-01-27T04:11:28;0.40;44.30
6486;DHT22;3276;48.490;9.222;2024-01-27T04:13:53;0.50;43.70
6486;DHT22;3276;48.490;9.222;2024-01-27T04:16:19;0.50;43.70
6486;DHT22;3276;48.490;9.222;2024-01-27T04:18:44;0.60;44.50
6486;DHT22;3276;48.490;9.222;2024-01-27T04:21:10;0.60;43.60
6486;DHT22;3276;48.490;9.222;2024-01-27T04:23:35;0.70;44.00
6486;DHT22;3276;48.490;9.222;2024-01-27T04:26:01;0.70;42.20
6486;DHT22;3276;48.490;9.222;2024-01-27T04:28:27;0.80;41.40
6486;DHT22;3276;48.490;9.222;2024-01-27T04:30:55;0.80;40.40
6486;DHT22;3276;48.490;9.222;2024-01-27T04:33:21;0.70;39.70
6486;DHT22;3276;48.490;9.222;2024-01-27T04:35:46;0.70;39.60
6486;DHT22;3276;48.490;9.222;2024-01-27T04:38:12;0.70;39.30
6486;DHT22;3276;48.490;9.222;2024-01-27T04:40:37;0.60;38.60
6486;DHT22;3276;48.490;9.222;2024-01-27T04:43:03;0.60;38.70
6486;DHT22;3276;48.490;9.222;2024-01-27T04:45:28;0.60;38.20
6486;DHT22;3276;48.490;9.222;2024-01-27T04:47:54;0.50;38.00
6486;DHT22;3276;48.490;9.222;2024-01-27T04:50:20;0.50;38.30
6486;DHT22;3276;48.490;9.222;2024-01-27T04:52:46;0.50;37.70
6486;DHT22;3276;48.490;9.222;2024-01-27T04:55:12;0.40;36.80
6486;DHT22;3276;48.490;9.222;2024-01-27T04:57:38;0.40;36.90
6486;DHT22;3276;48.490;9.222;2024-01-27T05:00:04;0.30;37.90
6486;DHT22;3276;48.490;9.222;2024-01-27T05:02:41;0.30;37.10
6486;DHT22;3276;48.490;9.222;2024-01-27T05:05:07;0.20;37.90
6486;DHT22;3276;48.490;9.222;2024-01-27T05:07:33;0.20;37.90
6486;DHT22;3276;48.490;9.222;2024-01-27T05:09:58;0.20;37.90
6486;DHT22;3276;48.490;9.222;2024-01-27T05:12:24;0.10;38.00
6486;DHT22;3276;48.490;9.222;2024-01-27T05:14:49;0.00;38.20
6486;DHT22;3276;48.490;9.222;2024-01-27T05:17:15;0.00;37.80
6486;DHT22;3276;48.490;9.222;2024-01-27T05:19:40;0.00;38.70
6486;DHT22;3276;48.490;9.222;2024-01-27T05:22:06;0.00;39.00
6486;DHT22;3276;48.490;9.222;2024-01-27T05:24:31;0.00;39.30
6486;DHT22;3276;48.490;9.222;2024-01-27T05:26:57;-0.10;38.60
6486;DHT22;3276;48.490;9.222;2024-01-27T05:29:22;-0.10;39.00
6486;DHT22;3276;48.490;9.222;2024-01-27T05:31:48;-0.20;38.80
6486;DHT22;3276;48.490;9.222;2024-01-27T05:34:13;-0.20;38.70
6486;DHT22;3276;48.490;9.222;2024-01-27T05:36:40;-0.30;37.90
6486;DHT22;3276;48.490;9.222;2024-01-27T05:39:06;-0.30;38.20
6486;DHT22;3276;48.490;9.222;2024-01-27T05:41:32;-0.40;38.40
6486;DHT22;3276;48.490;9.222;2024-01-27T05:43:58;-0.50;38.10
6486;DHT22;3276;48.490;9.222;2024-01-27T05:46:24;-0.50;38.40
6486;DHT22;3276;48.490;9.222;2024-01-27T05:48:50;-0.60;38.80
6486;DHT22;3276;48.490;9.222;2024-01-27T05:51:22;-0.60;38.60
6486;DHT22;3276;48.490;9.222;2024-01-27T05:53:48;-0.70;38.00
6486;DHT22;3276;48.490;9.222;2024-01-27T05:56:14;-0.70;39.20
6486;DHT22;3276;48.490;9.222;2024-01-27T05:58:40;-0.70;39.90
6486;DHT22;3276;48.490;9.222;2024-01-27T06:01:05;-0.70;40.30
6486;DHT22;3276;48.490;9.222;2024-01-27T06:03:32;-0.70;39.00
6486;DHT22;3276;48.490;9.222;2024-01-27T06:05:57;-0.70;39.90
6486;DHT22;3276;48.490;9.222;2024-01-27T06:08:23;-0.80;39.90
6486;DHT22;3276;48.490;9.222;2024-01-27T06:10:48;-0.80;39.20
6486;DHT22;3276;48.490;9.222;2024-01-27T06:13:14;-0.80;39.90
6486;DHT22;3276;48.490;9.222;2024-01-27T06:15:39;-0.80;39.60
6486;DHT22;3276;48.490;9.222;2024-01-27T06:18:05;-0.90;39.50
6486;DHT22;3276;48.490;9.222;2024-01-27T06:20:31;-0.90;40.00
6486;DHT22;3276;48.490;9.222;2024-01-27T06:22:56;-0.90;39.80
6486;DHT22;3276;48.490;9.222;2024-01-27T06:25:23;-1.00;39.60
6486;DHT22;3276;48.490;9.222;2024-01-27T06:27:48;-1.00;39.90
6486;DHT22;3276;48.490;9.222;2024-01-27T06:30:14;-1.00;39.80
6486;DHT22;3276;48.490;9.222;2024-01-27T06:32:41;-1.00;40.10
6486;DHT22;3276;48.490;9.222;2024-01-27T06:35:07;-1.00;40.00
6486;DHT22;3276;48.490;9.222;2024-01-27T06:37:32;-1.00;39.30
6486;DHT22;3276;48.490;9.222;2024-01-27T06:39:58;-1.10;39.20
6486;DHT22;3276;48.490;9.222;2024-01-27T06:42:24;-1.10;39.60
6486;DHT22;3276;48.490;9.222;2024-01-27T06:44:49;-1.10;39.80
6486;DHT22;3276;48.490;9.222;2024-01-27T06:47:15;-1.10;40.40
6486;DHT22;3276;48.490;9.222;2024-01-27T06:49:40;-1.10;40.30
6486;DHT22;3276;48.490;9.222;2024-01-27T06:52:06;-1.10;40.20
6486;DHT22;3276;48.490;9.222;2024-01-27T06:54:31;-1.10;41.00
6486;DHT22;3276;48.490;9.222;2024-01-27T06:56:59;-1.10;40.50
6486;DHT22;3276;48.490;9.222;2024-01-27T06:59:25;-1.10;40.30
6486;DHT22;3276;48.490;9.222;2024-01-27T07:01:50;-1.10;40.60
6486;DHT22;3276;48.490;9.222;2024-01-27T07:04:17;-1.10;40.10
6486;DHT22;3276;48.490;9.222;2024-01-27T07:06:45;-1.20;39.90
6486;DHT22;3276;48.490;9.222;2024-01-27T07:09:11;-1.20;40.50
6486;DHT22;3276;48.490;9.222;2024-01-27T07:11:37;-1.20;39.80
6486;DHT22;3276;48.490;9.222;2024-01-27T07:14:04;-1.20;39.90
6486;DHT22;3276;48.490;9.222;2024-01-27T07:16:29;-1.20;40.00
6486;DHT22;3276;48.490;9.222;2024-01-27T07:18:55;-1.20;40.90
6486;DHT22;3276;48.490;9.222;2024-01-27T07:21:21;-1.20;41.00
6486;DHT22;3276;48.490;9.222;2024-01-27T07:23:46;-1.20;40.30
6486;DHT22;3276;48.490;9.222;2024-01-27T07:26:12;-1.20;41.10
6486;DHT22;3276;48.490;9.222;2024-01-27T07:28:38;-1.20;40.70
6486;DHT22;3276;48.490;9.222;2024-01-27T07:31:05;-1.20;41.40
6486;DHT22;3276;48.490;9.222;2024-01-27T07:33:30;-1.20;41.20
6486;DHT22;3276;48.490;9.222;2024-01-27T07:35:56;-1.20;42.00
6486;DHT22;3276;48.490;9.222;2024-01-27T07:38:22;-1.10;42.20
6486;DHT22;3276;48.490;9.222;2024-01-27T07:40:48;-1.10;42.30
6486;DHT22;3276;48.490;9.222;2024-01-27T07:43:13;-1.00;43.20
6486;DHT22;3276;48.490;9.222;2024-01-27T07:45:39;-1.00;42.20
6486;DHT22;3276;48.490;9.222;2024-01-27T07:48:05;-0.90;42.30
6486;DHT22;3276;48.490;9.222;2024-01-27T07:50:30;-0.90;42.60
6486;DHT22;3276;48.490;9.222;2024-01-27T07:52:57;-0.80;42.60
6486;DHT22;3276;48.490;9.222;2024-01-27T07:55:23;-0.90;42.60
6486;DHT22;3276;48.490;9.222;2024-01-27T07:57:48;-0.80;43.00
6486;DHT22;3276;48.490;9.222;2024-01-27T08:00:14;-0.80;43.30
6486;DHT22;3276;48.490;9.222;2024-01-27T08:02:40;-0.70;43.40
6486;DHT22;3276;48.490;9.222;2024-01-27T08:05:06;-0.70;42.00
6486;DHT22;3276;48.490;9.222;2024-01-27T08:07:31;-0.70;43.50
6486;DHT22;3276;48.490;9.222;2024-01-27T08:09:57;-0.70;43.40
6486;DHT22;3276;48.490;9.222;2024-01-27T08:12:23;-0.60;43.50
6486;DHT22;3276;48.490;9.222;2024-01-27T08:14:49;-0.50;43.60
6486;DHT22;3276;48.490;9.222;2024-01-27T08:17:14;-0.50;44.30
6486;DHT22;3276;48.490;9.222;2024-01-27T08:19:40;-0.40;43.70
6486;DHT22;3276;48.490;9.222;2024-01-27T08:22:05;-0.30;43.70
6486;DHT22;3276;48.490;9.222;2024-01-27T08:24:31;-0.20;43.90
6486;DHT22;3276;48.490;9.222;2024-01-27T08:26:58;-0.20;43.30
6486;DHT22;3276;48.490;9.222;2024-01-27T08:29:24;-0.10;43.90
6486;DHT22;3276;48.490;9.222;2024-01-27T08:31:50;0.00;44.10
6486;DHT22;3276;48.490;9.222;2024-01-27T08:34:16;0.00;44.00
6486;DHT22;3276;48.490;9.222;2024-01-27T08:36:41;0.00;44.00
6486;DHT22;3276;48.490;9.222;2024-01-27T08:39:07;0.10;44.10
6486;DHT22;3276;48.490;9.222;2024-01-27T08:41:33;0.10;44.10
6486;DHT22;3276;48.490;9.222;2024-01-27T08:43:58;0.20;44.30
6486;DHT22;3276;48.490;9.222;2024-01-27T08:46:24;0.20;43.30
6486;DHT22;3276;48.490;9.222;2024-01-27T08:48:49;0.20;42.40
6486;DHT22;3276;48.490;9.222;2024-01-27T08:51:15;0.20;42.80
6486;DHT22;3276;48.490;9.222;2024-01-27T08:53:42;0.20;41.70
6486;DHT22;3276;48.490;9.222;2024-01-27T08:56:17;0.20;42.10
6486;DHT22;3276;48.490;9.222;2024-01-27T08:58:48;0.20;42.30
6486;DHT22;3276;48.490;9.222;2024-01-27T09:01:18;0.30;44.20
6486;DHT22;3276;48.490;9.222;2024-01-27T09:03:45;0.40;43.10
6486;DHT22;3276;48.490;9.222;2024-01-27T09:06:13;0.40;43.10
6486;DHT22;3276;48.490;9.222;2024-01-27T09:08:38;0.50;42.80
6486;DHT22;3276;48.490;9.222;2024-01-27T09:11:04;0.50;41.70
6486;DHT22;3276;48.490;9.222;2024-01-27T09:13:30;0.50;41.70
6486;DHT22;3276;48.490;9.222;2024-01-27T09:15:57;0.50;42.20
6486;DHT22;3276;48.490;9.222;2024-01-27T09:18:23;0.60;41.90
6486;DHT22;3276;48.490;9.222;2024-01-27T09:20:52;0.60;41.00
6486;DHT22;3276;48.490;9.222;2024-01-27T09:23:17;0.60;41.20
6486;DHT22;3276;48.490;9.222;2024-01-27T09:25:43;0.70;40.80
6486;DHT22;3276;48.490;9.222;2024-01-27T09:28:09;0.70;40.10
6486;DHT22;3276;48.490;9.222;2024-01-27T09:30:34;0.70;39.60
6486;DHT22;3276;48.490;9.222;2024-01-27T09:33:00;0.70;39.60
6486;DHT22;3276;48.490;9.222;2024-01-27T09:35:25;0.70;39.60
6486;DHT22;3276;48.490;9.222;2024-01-27T09:37:51;0.70;40.00
6486;DHT22;3276;48.490;9.222;2024-01-27T09:40:17;0.60;40.60
6486;DHT22;3276;48.490;9.222;2024-01-27T09:42:50;0.60;41.30
6486;DHT22;3276;48.490;9.222;2024-01-27T09:45:20;0.60;41.00
6486;DHT22;3276;48.490;9.222;2024-01-27T09:47:48;0.60;42.00
6486;DHT22;3276;48.490;9.222;2024-01-27T09:50:14;0.70;41.90
6486;DHT22;3276;48.490;9.222;2024-01-27T09:52:40;0.80;42.20
6486;DHT22;3276;48.490;9.222;2024-01-27T09:55:06;0.90;42.40
6486;DHT22;3276;48.490;9.222;2024-01-27T09:57:32;0.90;42.40
6486;DHT22;3276;48.490;9.222;2024-01-27T09:59:58;1.00;43.50
6486;DHT22;3276;48.490;9.222;2024-01-27T10:02:24;1.20;42.80
6486;DHT22;3276;48.490;9.222;2024-01-27T10:04:53;1.30;41.60
6486;DHT22;3276;48.490;9.222;2024-01-27T10:07:20;1.30;39.90
6486;DHT22;3276;48.490;9.222;2024-01-27T10:09:53;1.30;40.10
6486;DHT22;3276;48.490;9.222;2024-01-27T10:12:21;1.40;38.10
6486;DHT22;3276;48.490;9.222;2024-01-27T10:14:48;1.40;37.90
6486;DHT22;3276;48.490;9.222;2024-01-27T10:17:22;1.30;36.40
6486;DHT22;3276;48.490;9.222;2024-01-27T10:20:02;1.30;36.40
6486;DHT22;3276;48.490;9.222;2024-01-27T10:22:29;1.30;35.00
6486;DHT22;3276;48.490;9.222;2024-01-27T10:24:54;1.50;36.60
6486;DHT22;3276;48.490;9.222;2024-01-27T10:27:21;1.50;36.10
6486;DHT22;3276;48.490;9.222;2024-01-27T10:29:54;1.60;36.50
6486;DHT22;3276;48.490;9.222;2024-01-27T10:32:21;1.50;35.20
6486;DHT22;3276;48.490;9.222;2024-01-27T10:35:07;1.70;36.70
6486;DHT22;3276;48.490;9.222;2024-01-27T10:37:37;1.80;36.20
6486;DHT22;3276;48.490;9.222;2024-01-27T10:40:06;1.80;35.40
6486;DHT22;3276;48.490;9.222;2024-01-27T10:42:36;2.00;34.00
6486;DHT22;3276;48.490;9.222;2024-01-27T10:45:03;2.10;31.50
6486;DHT22;3276;48.490;9.222;2024-01-27T10:47:30;2.20;31.40
6486;DHT22;3276;48.490;9.222;2024-01-27T10:49:57;2.30;30.50
6486;DHT22;3276;48.490;9.222;2024-01-27T10:52:31;2.50;29.90
6486;DHT22;3276;48.490;9.222;2024-01-27T10:55:04;2.60;27.60
6486;DHT22;3276;48.490;9.222;2024-01-27T10:57:33;2.90;26.40
6486;DHT22;3276;48.490;9.222;2024-01-27T11:00:01;3.00;24.40
6486;DHT22;3276;48.490;9.222;2024-01-27T11:02:32;3.10;23.40
6486;DHT22;3276;48.490;9.222;2024-01-27T11:05:00;3.30;22.40
6486;DHT22;3276;48.490;9.222;2024-01-27T11:07:27;3.50;20.10
6486;DHT22;3276;48.490;9.222;2024-01-27T11:09:54;3.60;19.20
6486;DHT22;3276;48.490;9.222;2024-01-27T11:12:23;3.90;19.00
6486;DHT22;3276;48.490;9.222;2024-01-27T11:14:50;4.00;15.80
6486;DHT22;3276;48.490;9.222;2024-01-27T11:17:17;4.10;13.70
6486;DHT22;3276;48.490;9.222;2024-01-27T11:19:44;4.20;14.20
6486;DHT22;3276;48.490;9.222;2024-01-27T11:24:50;4.50;11.30
6486;DHT22;3276;48.490;9.222;2024-01-27T11:27:18;4.60;10.90
6486;DHT22;3276;48.490;9.222;2024-01-27T11:29:52;4.80;10.40
6486;DHT22;3276;48.490;9.222;2024-01-27T11:32:17;5.00;9.20
6486;DHT22;3276;48.490;9.222;2024-01-27T11:34:46;5.10;6.70
6486;DHT22;3276;48.490;9.222;2024-01-27T11:37:16;5.30;7.00
6486;DHT22;3276;48.490;9.222;2024-01-27T11:39:42;5.40;6.10
6486;DHT22;3276;48.490;9.222;2024-01-27T11:42:10;5.60;6.30
6486;DHT22;3276;48.490;9.222;2024-01-27T11:44:40;5.70;5.10
6486;DHT22;3276;48.490;9.222;2024-01-27T11:47:13;5.70;3.80
6486;DHT22;3276;48.490;9.222;2024-01-27T11:49:39;5.80;4.40
6486;DHT22;3276;48.490;9.222;2024-01-27T11:52:06;5.90;4.00
6486;DHT22;3276;48.490;9.222;2024-01-27T11:54:32;6.10;3.50
6486;DHT22;3276;48.490;9.222;2024-01-27T11:56:57;6.20;2.80
6486;DHT22;3276;48.490;9.222;2024-01-27T11:59:23;6.30;3.30
6486;DHT22;3276;48.490;9.222;2024-01-27T12:01:49;6.40;1.90
6486;DHT22;3276;48.490;9.222;2024-01-27T12:04:15;6.40;2.60
6486;DHT22;3276;48.490;9.222;2024-01-27T12:06:43;6.40;1.00
6486;DHT22;3276;48.490;9.222;2024-01-27T12:09:10;6.50;1.00
6486;DHT22;3276;48.490;9.222;2024-01-27T12:11:38;6.60;1.00
6486;DHT22;3276;48.490;9.222;2024-01-27T12:14:07;6.50;1.00
6486;DHT22;3276;48.490;9.222;2024-01-27T12:16:33;6.70;1.00
6486;DHT22;3276;48.490;9.222;2024-01-27T12:18:58;6.80;1.00
6486;DHT22;3276;48.490;9.222;2024-01-27T12:21:25;6.80;1.00
6486;DHT22;3276;48.490;9.222;2024-01-27T12:23:55;6.80;1.00
6486;DHT22;3276;48.490;9.222;2024-01-27T12:26:22;6.70;1.00
6486;DHT22;3276;48.490;9.222;2024-01-27T12:28:51;6.80;1.00
6486;DHT22;3276;48.490;9.222;2024-01-27T12:31:25;6.80;1.00
6486;DHT22;3276;48.490;9.222;2024-01-27T12:33:54;6.80;1.00
6486;DHT22;3276;48.490;9.222;2024-01-27T12:36:21;6.90;1.00
6486;DHT22;3276;48.490;9.222;2024-01-27T12:39:00;6.90;1.00
6486;DHT22;3276;48.490;9.222;2024-01-27T12:41:29;6.90;1.00
6486;DHT22;3276;48.490;9.222;2024-01-27T12:43:55;6.90;1.00
6486;DHT22;3276;48.490;9.222;2024-01-27T12:46:22;6.90;1.00
6486;DHT22;3276;48.490;9.222;2024-01-27T12:48:48;7.00;1.00
6486;DHT22;3276;48.490;9.222;2024-01-27T12:51:13;7.10;1.00
6486;DHT22;3276;48.490;9.222;2024-01-27T12:53:40;7.10;1.00
6486;DHT22;3276;48.490;9.222;2024-01-27T12:56:12;7.10;1.00
6486;DHT22;3276;48.490;9.222;2024-01-27T12:58:39;7.20;1.00
6486;DHT22;3276;48.490;9.222;2024-01-27T13:01:05;7.30;1.00
6486;DHT22;3276;48.490;9.222;2024-01-27T13:03:31;7.30;1.00
6486;DHT22;3276;48.490;9.222;2024-01-27T13:05:57;7.40;1.00
6486;DHT22;3276;48.490;9.222;2024-01-27T13:08:23;7.40;1.00
6486;DHT22;3276;48.490;9.222;2024-01-27T13:10:49;7.50;1.00
6486;DHT22;3276;48.490;9.222;2024-01-27T13:13:15;7.50;1.00
6486;DHT22;3276;48.490;9.222;2024-01-27T13:15:40;7.50;1.00
6486;DHT22;3276;48.490;9.222;2024-01-27T13:18:06;7.60;1.00
6486;DHT22;3276;48.490;9.222;2024-01-27T13:20:32;7.60;1.00
6486;DHT22;3276;48.490;9.222;2024-01-27T13:22:58;7.60;1.00
6486;DHT22;3276;48.490;9.222;2024-01-27T13:25:24;7.60;1.00
6486;DHT22;3276;48.490;9.222;2024-01-27T13:27:49;7.60;1.00
6486;DHT22;3276;48.490;9.222;2024-01-27T13:30:15;7.70;1.00
6486;DHT22;3276;48.490;9.222;2024-01-27T13:32:43;7.80;1.00
6486;DHT22;3276;48.490;9.222;2024-01-27T13:35:08;7.90;1.00
6486;DHT22;3276;48.490;9.222;2024-01-27T13:37:34;7.90;1.00
6486;DHT22;3276;48.490;9.222;2024-01-27T13:40:00;8.00;1.00
6486;DHT22;3276;48.490;9.222;2024-01-27T13:42:26;8.10;1.00
6486;DHT22;3276;48.490;9.222;2024-01-27T13:44:51;8.10;1.00
6486;DHT22;3276;48.490;9.222;2024-01-27T13:47:17;8.10;1.00
6486;DHT22;3276;48.490;9.222;2024-01-27T13:49:43;8.00;1.00
6486;DHT22;3276;48.490;9.222;2024-01-27T13:52:09;8.00;1.00
6486;DHT22;3276;48.490;9.222;2024-01-27T13:54:34;7.90;1.00
6486;DHT22;3276;48.490;9.222;2024-01-27T13:57:01;7.80;1.00
6486;DHT22;3276;48.490;9.222;2024-01-27T13:59:27;7.80;1.00
6486;DHT22;3276;48.490;9.222;2024-01-27T14:01:53;7.70;1.00
6486;DHT22;3276;48.490;9.222;2024-01-27T14:04:19;7.70;1.00
6486;DHT22;3276;48.490;9.222;2024-01-27T14:06:45;7.70;1.00
6486;DHT22;3276;48.490;9.222;2024-01-27T14:09:11;7.70;1.00
6486;DHT22;3276;48.490;9.222;2024-01-27T14:11:38;7.70;1.00
6486;DHT22;3276;48.490;9.222;2024-01-27T14:14:04;7.70;1.00
6486;DHT22;3276;48.490;9.222;2024-01-27T14:16:29;7.70;1.00
6486;DHT22;3276;48.490;9.222;2024-01-27T14:18:55;7.60;1.00
6486;DHT22;3276;48.490;9.222;2024-01-27T14:21:20;7.60;1.00
6486;DHT22;3276;48.490;9.222;2024-01-27T14:23:46;7.70;1.00
6486;DHT22;3276;48.490;9.222;2024-01-27T14:26:12;7.70;1.00
6486;DHT22;3276;48.490;9.222;2024-01-27T14:28:42;7.70;1.00
6486;DHT22;3276;48.490;9.222;2024-01-27T14:31:08;7.60;1.00
6486;DHT22;3276;48.490;9.222;2024-01-27T14:33:34;7.60;1.00
6486;DHT22;3276;48.490;9.222;2024-01-27T14:36:00;7.60;1.00
6486;DHT22;3276;48.490;9.222;2024-01-27T14:38:25;7.60;1.00
6486;DHT22;3276;48.490;9.222;2024-01-27T14:40:51;7.50;1.00
6486;DHT22;3276;48.490;9.222;2024-01-27T14:43:16;7.60;1.00
6486;DHT22;3276;48.490;9.222;2024-01-27T14:45:46;7.60;1.00
6486;DHT22;3276;48.490;9.222;2024-01-27T14:48:12;7.50;1.00
6486;DHT22;3276;48.490;9.222;2024-01-27T14:50:38;7.40;1.00
6486;DHT22;3276;48.490;9.222;2024-01-27T14:53:04;7.30;1.00
6486;DHT22;3276;48.490;9.222;2024-01-27T14:55:31;7.20;1.00
6486;DHT22;3276;48.490;9.222;2024-01-27T14:57:58;7.20;1.00
6486;DHT22;3276;48.490;9.222;2024-01-27T15:00:24;7.20;1.00
6486;DHT22;3276;48.490;9.222;2024-01-27T15:02:50;7.20;1.00
6486;DHT22;3276;48.490;9.222;2024-01-27T15:05:16;7.10;1.00
6486;DHT22;3276;48.490;9.222;2024-01-27T15:07:41;7.10;1.00
6486;DHT22;3276;48.490;9.222;2024-01-27T15:10:07;7.10;1.00
6486;DHT22;3276;48.490;9.222;2024-01-27T15:12:33;7.10;1.00
6486;DHT22;3276;48.490;9.222;2024-01-27T15:14:58;7.20;1.00
6486;DHT22;3276;48.490;9.222;2024-01-27T15:17:24;7.60;1.00
6486;DHT22;3276;48.490;9.222;2024-01-27T15:19:50;8.20;1.00
6486;DHT22;3276;48.490;9.222;2024-01-27T15:22:17;8.40;1.00
6486;DHT22;3276;48.490;9.222;2024-01-27T15:24:43;8.10;1.00
6486;DHT22;3276;48.490;9.222;2024-01-27T15:27:08;7.90;1.00
6486;DHT22;3276;48.490;9.222;2024-01-27T15:29:34;7.60;1.00
6486;DHT22;3276;48.490;9.222;2024-01-27T15:31:59;7.40;1.00
6486;DHT22;3276;48.490;9.222;2024-01-27T15:34:25;7.20;1.00
6486;DHT22;3276;48.490;9.222;2024-01-27T15:36:51;7.00;1.00
6486;DHT22;3276;48.490;9.222;2024-01-27T15:39:16;6.90;1.00
6486;DHT22;3276;48.490;9.222;2024-01-27T15:41:42;6.80;1.00
6486;DHT22;3276;48.490;9.222;2024-01-27T15:44:07;6.60;1.00
6486;DHT22;3276;48.490;9.222;2024-01-27T15:46:33;6.50;1.00
6486;DHT22;3276;48.490;9.222;2024-01-27T15:48:58;6.40;1.00
6486;DHT22;3276;48.490;9.222;2024-01-27T15:51:24;6.30;1.00
6486;DHT22;3276;48.490;9.222;2024-01-27T15:53:49;6.20;1.00
6486;DHT22;3276;48.490;9.222;2024-01-27T15:56:15;6.10;1.00
6486;DHT22;3276;48.490;9.222;2024-01-27T15:58:40;6.00;1.00
6486;DHT22;3276;48.490;9.222;2024-01-27T16:01:06;5.90;1.00
6486;DHT22;3276;48.490;9.222;2024-01-27T16:03:31;5.80;1.00
6486;DHT22;3276;48.490;9.222;2024-01-27T16:06:00;5.80;1.00
6486;DHT22;3276;48.490;9.222;2024-01-27T16:08:26;5.60;1.00
6486;DHT22;3276;48.490;9.222;2024-01-27T16:10:51;5.50;1.00
6486;DHT22;3276;48.490;9.222;2024-01-27T16:13:18;5.30;1.50
6486;DHT22;3276;48.490;9.222;2024-01-27T16:15:44;5.20;2.10